»·PEaware :: N7CM KPDX-KSEA

N7CM :: KPDX-KSEA

FLIGHT INFORMATION

Flight Status: Arrived
Operator: Privately registered:
United States
More flights under this callsign
Pilot: Carlos D. (29349)
Aircraft: CESSNA 550 CITATION 2/S2/BRAVO
(C550)
More flights by this aircraft type
Origin: KPDX Portland Intl
United States
Destination: KSEA Seattle-Tacoma Intl
United States
More flights between these airports :: More routes between these airports
Route: +PTLD1 COUGA KRIEG HAWKZ7
File this flight plan on PilotEdge
Remarks:
Altitude:
(Current/Filed)
18,000ft
Speed:
(Current/Filed)
270kts
Departed: 17-Nov-20 05:12 PM
Arrived: 17-Nov-20 05:51 PM
Distance/Time
Traveled:
113nm/0:39
Distance/Time
To Go:
Arrived

Flight Plot

Page will automatically refresh every two minutes.

Flight plan parsing failed; only flown route is shown


Map Options




Map Legend


Flown Route
Filed Route
Departure Airport
Arrival Airport
Navaid (VOR, NDB)
Fix

Horizontal Profiles

Position Reports

Time Latitude Longitude Heading Altitude Ground
Speed
17-Nov-20 16:42 45.588384 -122.585036 297 21ft 0kts
17-Nov-20 16:43 45.588384 -122.585036 297 21ft 0kts
17-Nov-20 16:44 45.588384 -122.585036 297 21ft 0kts
17-Nov-20 16:45 45.588384 -122.585036 297 21ft 0kts
17-Nov-20 16:46 45.588384 -122.585036 297 21ft 0kts
17-Nov-20 16:47 45.588384 -122.585036 297 21ft 0kts
17-Nov-20 16:48 45.588384 -122.585036 297 21ft 0kts
17-Nov-20 16:49 45.588384 -122.585036 297 21ft 0kts
17-Nov-20 16:50 45.588384 -122.585036 297 21ft 0kts
17-Nov-20 16:51 45.588384 -122.585036 297 21ft 0kts
17-Nov-20 16:52 45.588384 -122.585036 297 21ft 0kts
17-Nov-20 16:53 45.588384 -122.585036 297 21ft 0kts
17-Nov-20 16:54 45.588384 -122.585036 297 21ft 0kts
17-Nov-20 16:55 45.588384 -122.585036 297 21ft 0kts
17-Nov-20 16:56 45.588384 -122.585036 297 21ft 0kts
17-Nov-20 16:57 45.588384 -122.585036 297 21ft 0kts
17-Nov-20 16:58 45.588384 -122.585036 297 21ft 0kts
17-Nov-20 16:59 45.588384 -122.585036 297 21ft 0kts
17-Nov-20 17:00 45.588384 -122.585036 297 21ft 0kts
17-Nov-20 17:01 45.588646 -122.585626 293 21ft 7kts
17-Nov-20 17:02 45.590147 -122.586920 299 21ft 6kts
17-Nov-20 17:03 45.591158 -122.589505 300 21ft 1kts
17-Nov-20 17:04 45.592365 -122.592607 298 21ft 10kts
17-Nov-20 17:05 45.593596 -122.595751 303 25ft 7kts
17-Nov-20 17:06 45.593914 -122.596044 351 25ft 0kts
17-Nov-20 17:07 45.593914 -122.596044 351 25ft 0kts
17-Nov-20 17:08 45.593914 -122.596044 351 25ft 0kts
17-Nov-20 17:09 45.593929 -122.596047 351 25ft 3kts
17-Nov-20 17:10 45.594505 -122.594897 118 24ft 0kts
17-Nov-20 17:11 45.584059 -122.566443 105 604ft 161kts
17-Nov-20 17:12 45.578193 -122.492692 99 3227ft 196kts
17-Nov-20 17:13 45.586415 -122.416735 31 5852ft 228kts
17-Nov-20 17:14 45.634850 -122.450246 300 9191ft 201kts
17-Nov-20 17:15 45.687760 -122.489659 328 12265ft 231kts
17-Nov-20 17:16 45.750296 -122.518590 328 14840ft 246kts
17-Nov-20 17:17 45.828189 -122.554798 332 14979ft 334kts
17-Nov-20 17:18 45.918564 -122.596522 332 14963ft 347kts
17-Nov-20 17:19 46.011084 -122.639585 332 14953ft 350kts
17-Nov-20 17:20 46.105073 -122.677354 341 14950ft 359kts
17-Nov-20 17:21 46.202842 -122.698954 343 15891ft 326kts
17-Nov-20 17:22 46.276265 -122.713419 339 18765ft 272kts
17-Nov-20 17:23 46.353654 -122.722308 345 19932ft 291kts
17-Nov-20 17:24 46.441062 -122.726773 349 19941ft 336kts
17-Nov-20 17:25 46.538325 -122.730559 350 19919ft 357kts
17-Nov-20 17:26 46.635402 -122.733724 349 18243ft 336kts
17-Nov-20 17:27 46.724098 -122.736954 350 14795ft 349kts
17-Nov-20 17:28 46.811638 -122.705991 32 11918ft 306kts
17-Nov-20 17:29 46.851686 -122.660253 35 11919ft 263kts
17-Nov-20 17:30 46.886351 -122.620636 35 11939ft 248kts
17-Nov-20 17:31 46.936347 -122.566498 19 12002ft 266kts
17-Nov-20 17:32 46.984829 -122.541431 9 12026ft 259kts
17-Nov-20 17:33 47.047881 -122.513987 9 12057ft 240kts
17-Nov-20 17:34 47.116320 -122.493585 359 11119ft 262kts
17-Nov-20 17:35 47.203381 -122.477928 359 10038ft 234kts
17-Nov-20 17:36 47.264596 -122.468830 0 9154ft 238kts
17-Nov-20 17:37 47.317533 -122.460739 2 8049ft 244kts
17-Nov-20 17:38 47.359824 -122.455216 355 7769ft 232kts
17-Nov-20 17:39 47.415049 -122.455331 355 6990ft 233kts
17-Nov-20 17:40 47.464986 -122.455399 356 6053ft 231kts
17-Nov-20 17:41 47.524894 -122.455709 355 5147ft 225kts
17-Nov-20 17:42 47.608596 -122.452491 36 2986ft 202kts
17-Nov-20 17:43 47.626451 -122.362009 85 2970ft 149kts
17-Nov-20 17:44 47.612345 -122.308011 158 2849ft 110kts
17-Nov-20 17:45 47.565922 -122.306925 180 1975ft 106kts
17-Nov-20 17:46 47.538686 -122.307127 180 1886ft 96kts
17-Nov-20 17:47 47.513406 -122.307349 179 1421ft 86kts
17-Nov-20 17:48 47.489680 -122.307549 179 968ft 86kts
17-Nov-20 17:49 47.465545 -122.307754 179 480ft 85kts
17-Nov-20 17:50 47.455694 -122.307252 113 429ft 6kts
17-Nov-20 17:51 47.455216 -122.306540 149 430ft 0kts

Navigation Log

Ident Type
Flight plan parsing failed, navigation log unavailable